METAR Data
IDs: Format: Raw Decoded Include TAF

Data at: 1951 UTC 15 Oct 2018

METAR for:K6B9 (Skaneateles Arpt, NY, US)
Text:K6B9 151935Z AUTO 19007G16KT 160V220 2 1/2SM BR SCT021 BKN026 OVC032 16/14 A2977 RMK AO2
Temperature: 16.0°C ( 61°F)
Dewpoint: 14.0°C ( 57°F) [RH = 88%]
Pressure (altimeter):29.77 inches Hg (1008.2 mb)
Winds:from the S (190 degrees) at 8 MPH (7 knots; 3.6 m/s) gusting to 18 MPH (16 knots; 8.2 m/s)
Visibility: 2.50 sm ( 4.02 km)
Ceiling:2600 feet AGL
Clouds: scattered clouds at 2100 feet AGL, broken clouds at 2600 feet AGL, overcast cloud deck at 3200 feet AGL
Weather:BR (mist)
QC Flag:automated observation with no human augmentation
Text:K6B9 151915Z AUTO VRB05G19KT 10SM OVC027 16/13 A2977 RMK AO2
Temperature: 16.0°C ( 61°F)
Dewpoint: 13.0°C ( 55°F) [RH = 82%]
Pressure (altimeter):29.77 inches Hg (1008.2 mb)
Winds:variable direction winds at 6 MPH (5 knots; 2.6 m/s) gusting to 22 MPH (19 knots; 9.8 m/s)
Visibility:10 or more sm (16+ km)
Ceiling:2700 feet AGL
Clouds: overcast cloud deck at 2700 feet AGL
QC Flag:automated observation with no human augmentation
Text:K6B9 151855Z AUTO 20007G15KT 10SM OVC027 16/13 A2978 RMK AO2
Temperature: 16.0°C ( 61°F)
Dewpoint: 13.0°C ( 55°F) [RH = 82%]
Pressure (altimeter):29.78 inches Hg (1008.5 mb)
Winds:from the SSW (200 degrees) at 8 MPH (7 knots; 3.6 m/s) gusting to 17 MPH (15 knots; 7.7 m/s)
Visibility:10 or more sm (16+ km)
Ceiling:2700 feet AGL
Clouds: overcast cloud deck at 2700 feet AGL
QC Flag:automated observation with no human augmentation
Text:K6B9 151835Z AUTO VRB05G12KT 10SM OVC026 16/13 A2978 RMK AO2
Temperature: 16.0°C ( 61°F)
Dewpoint: 13.0°C ( 55°F) [RH = 82%]
Pressure (altimeter):29.78 inches Hg (1008.5 mb)
Winds:variable direction winds at 6 MPH (5 knots; 2.6 m/s) gusting to 14 MPH (12 knots; 6.2 m/s)
Visibility:10 or more sm (16+ km)
Ceiling:2600 feet AGL
Clouds: overcast cloud deck at 2600 feet AGL
QC Flag:automated observation with no human augmentation
Text:K6B9 151815Z AUTO VRB05G14KT 10SM OVC024 15/13 A2979 RMK AO2
Temperature: 15.0°C ( 59°F)
Dewpoint: 13.0°C ( 55°F) [RH = 88%]
Pressure (altimeter):29.79 inches Hg (1008.9 mb)
Winds:variable direction winds at 6 MPH (5 knots; 2.6 m/s) gusting to 16 MPH (14 knots; 7.2 m/s)
Visibility:10 or more sm (16+ km)
Ceiling:2400 feet AGL
Clouds: overcast cloud deck at 2400 feet AGL
QC Flag:automated observation with no human augmentation
Text:K6B9 151755Z AUTO 18008G16KT 150V210 10SM OVC024 15/13 A2980 RMK AO2
Temperature: 15.0°C ( 59°F)
Dewpoint: 13.0°C ( 55°F) [RH = 88%]
Pressure (altimeter):29.80 inches Hg (1009.2 mb)
Winds:from the S (180 degrees) at 9 MPH (8 knots; 4.1 m/s) gusting to 18 MPH (16 knots; 8.2 m/s)
Visibility:10 or more sm (16+ km)
Ceiling:2400 feet AGL
Clouds: overcast cloud deck at 2400 feet AGL
QC Flag:automated observation with no human augmentation
Text:K6B9 151735Z AUTO 19007G16KT 140V230 10SM OVC025 15/13 A2981 RMK AO2
Temperature: 15.0°C ( 59°F)
Dewpoint: 13.0°C ( 55°F) [RH = 88%]
Pressure (altimeter):29.81 inches Hg (1009.6 mb)
Winds:from the S (190 degrees) at 8 MPH (7 knots; 3.6 m/s) gusting to 18 MPH (16 knots; 8.2 m/s)
Visibility:10 or more sm (16+ km)
Ceiling:2500 feet AGL
Clouds: overcast cloud deck at 2500 feet AGL
QC Flag:automated observation with no human augmentation
Text:K6B9 151715Z AUTO 19007G17KT 170V230 10SM SCT025 BKN029 OVC041 15/12 A2981 RMK AO2
Temperature: 15.0°C ( 59°F)
Dewpoint: 12.0°C ( 54°F) [RH = 82%]
Pressure (altimeter):29.81 inches Hg (1009.6 mb)
Winds:from the S (190 degrees) at 8 MPH (7 knots; 3.6 m/s) gusting to 20 MPH (17 knots; 8.7 m/s)
Visibility:10 or more sm (16+ km)
Ceiling:2900 feet AGL
Clouds: scattered clouds at 2500 feet AGL, broken clouds at 2900 feet AGL, overcast cloud deck at 4100 feet AGL
QC Flag:automated observation with no human augmentation
Text:K6B9 151655Z AUTO VRB07G17KT 140V230 10SM FEW022 BKN035 OVC041 15/12 A2982 RMK AO2
Temperature: 15.0°C ( 59°F)
Dewpoint: 12.0°C ( 54°F) [RH = 82%]
Pressure (altimeter):29.82 inches Hg (1009.9 mb)
Winds:variable direction winds at 8 MPH (7 knots; 3.6 m/s) gusting to 20 MPH (17 knots; 8.7 m/s)
Visibility:10 or more sm (16+ km)
Ceiling:3500 feet AGL
Clouds: few clouds at 2200 feet AGL, broken clouds at 3500 feet AGL, overcast cloud deck at 4100 feet AGL
QC Flag:automated observation with no human augmentation
Text:K6B9 151635Z AUTO VRB06G15KT 10SM FEW014 BKN021 OVC034 14/12 A2984 RMK AO2
Temperature: 14.0°C ( 57°F)
Dewpoint: 12.0°C ( 54°F) [RH = 88%]
Pressure (altimeter):29.84 inches Hg (1010.6 mb)
Winds:variable direction winds at 7 MPH (6 knots; 3.1 m/s) gusting to 17 MPH (15 knots; 7.7 m/s)
Visibility:10 or more sm (16+ km)
Ceiling:2100 feet AGL
Clouds: few clouds at 1400 feet AGL, broken clouds at 2100 feet AGL, overcast cloud deck at 3400 feet AGL
QC Flag:automated observation with no human augmentation
Text:K6B9 151615Z AUTO VRB05G12KT 10SM BKN015 OVC020 14/12 A2985 RMK AO2
Temperature: 14.0°C ( 57°F)
Dewpoint: 12.0°C ( 54°F) [RH = 88%]
Pressure (altimeter):29.85 inches Hg (1010.9 mb)
Winds:variable direction winds at 6 MPH (5 knots; 2.6 m/s) gusting to 14 MPH (12 knots; 6.2 m/s)
Visibility:10 or more sm (16+ km)
Ceiling:1500 feet AGL
Clouds: broken clouds at 1500 feet AGL, overcast cloud deck at 2000 feet AGL
QC Flag:automated observation with no human augmentation
Text:K6B9 151555Z AUTO 21008G15KT 10SM BKN014 BKN020 OVC041 14/12 A2987 RMK AO2
Temperature: 14.0°C ( 57°F)
Dewpoint: 12.0°C ( 54°F) [RH = 88%]
Pressure (altimeter):29.87 inches Hg (1011.6 mb)
Winds:from the SSW (210 degrees) at 9 MPH (8 knots; 4.1 m/s) gusting to 17 MPH (15 knots; 7.7 m/s)
Visibility:10 or more sm (16+ km)
Ceiling:1400 feet AGL
Clouds: broken clouds at 1400 feet AGL, broken clouds at 2000 feet AGL, overcast cloud deck at 4100 feet AGL
QC Flag:automated observation with no human augmentation
Text:K6B9 151535Z AUTO VRB06G14KT 10SM BKN014 BKN019 OVC055 13/11 A2987 RMK AO2
Temperature: 13.0°C ( 55°F)
Dewpoint: 11.0°C ( 52°F) [RH = 88%]
Pressure (altimeter):29.87 inches Hg (1011.6 mb)
Winds:variable direction winds at 7 MPH (6 knots; 3.1 m/s) gusting to 16 MPH (14 knots; 7.2 m/s)
Visibility:10 or more sm (16+ km)
Ceiling:1400 feet AGL
Clouds: broken clouds at 1400 feet AGL, broken clouds at 1900 feet AGL, overcast cloud deck at 5500 feet AGL
QC Flag:automated observation with no human augmentation
Text:K6B9 151515Z AUTO 20010G20KT 170V230 10SM SCT014 SCT020 BKN055 13/11 A2987 RMK AO2
Temperature: 13.0°C ( 55°F)
Dewpoint: 11.0°C ( 52°F) [RH = 88%]
Pressure (altimeter):29.87 inches Hg (1011.6 mb)
Winds:from the SSW (200 degrees) at 12 MPH (10 knots; 5.1 m/s) gusting to 23 MPH (20 knots; 10.3 m/s)
Visibility:10 or more sm (16+ km)
Ceiling:5500 feet AGL
Clouds: scattered clouds at 1400 feet AGL, scattered clouds at 2000 feet AGL, broken clouds at 5500 feet AGL
QC Flag:automated observation with no human augmentation
Text:K6B9 151455Z AUTO 20012G19KT 10SM FEW014 BKN024 BKN043 13/11 A2988 RMK AO2
Temperature: 13.0°C ( 55°F)
Dewpoint: 11.0°C ( 52°F) [RH = 88%]
Pressure (altimeter):29.88 inches Hg (1011.9 mb)
Winds:from the SSW (200 degrees) at 14 MPH (12 knots; 6.2 m/s) gusting to 22 MPH (19 knots; 9.8 m/s)
Visibility:10 or more sm (16+ km)
Ceiling:2400 feet AGL
Clouds: few clouds at 1400 feet AGL, broken clouds at 2400 feet AGL, broken clouds at 4300 feet AGL
QC Flag:automated observation with no human augmentation
Text:K6B9 151435Z AUTO 20009G16KT 170V230 10SM BKN023 BKN028 OVC044 12/11 A2989 RMK AO2
Temperature: 12.0°C ( 54°F)
Dewpoint: 11.0°C ( 52°F) [RH = 94%]
Pressure (altimeter):29.89 inches Hg (1012.3 mb)
Winds:from the SSW (200 degrees) at 10 MPH (9 knots; 4.6 m/s) gusting to 18 MPH (16 knots; 8.2 m/s)
Visibility:10 or more sm (16+ km)
Ceiling:2300 feet AGL
Clouds: broken clouds at 2300 feet AGL, broken clouds at 2800 feet AGL, overcast cloud deck at 4400 feet AGL
QC Flag:automated observation with no human augmentation
Text:K6B9 151415Z AUTO 20009KT 170V240 10SM SCT027 BKN032 OVC045 12/10 A2990 RMK AO2
Temperature: 12.0°C ( 54°F)
Dewpoint: 10.0°C ( 50°F) [RH = 88%]
Pressure (altimeter):29.90 inches Hg (1012.6 mb)
Winds:from the SSW (200 degrees) at 10 MPH (9 knots; 4.6 m/s)
Visibility:10 or more sm (16+ km)
Ceiling:3200 feet AGL
Clouds: scattered clouds at 2700 feet AGL, broken clouds at 3200 feet AGL, overcast cloud deck at 4500 feet AGL
QC Flag:automated observation with no human augmentation
Text:K6B9 151355Z AUTO 20009G16KT 150V230 10SM OVC035 11/10 A2991 RMK AO2
Temperature: 11.0°C ( 52°F)
Dewpoint: 10.0°C ( 50°F) [RH = 94%]
Pressure (altimeter):29.91 inches Hg (1013.0 mb)
Winds:from the SSW (200 degrees) at 10 MPH (9 knots; 4.6 m/s) gusting to 18 MPH (16 knots; 8.2 m/s)
Visibility:10 or more sm (16+ km)
Ceiling:3500 feet AGL
Clouds: overcast cloud deck at 3500 feet AGL
QC Flag:automated observation with no human augmentation
Text:K6B9 151335Z AUTO 18007G16KT 150V230 10SM FEW012 BKN032 OVC039 11/10 A2991 RMK AO2
Temperature: 11.0°C ( 52°F)
Dewpoint: 10.0°C ( 50°F) [RH = 94%]
Pressure (altimeter):29.91 inches Hg (1013.0 mb)
Winds:from the S (180 degrees) at 8 MPH (7 knots; 3.6 m/s) gusting to 18 MPH (16 knots; 8.2 m/s)
Visibility:10 or more sm (16+ km)
Ceiling:3200 feet AGL
Clouds: few clouds at 1200 feet AGL, broken clouds at 3200 feet AGL, overcast cloud deck at 3900 feet AGL
QC Flag:automated observation with no human augmentation
Text:K6B9 151315Z AUTO VRB04G13KT 10SM SCT012 OVC031 11/09 A2992 RMK AO2
Temperature: 11.0°C ( 52°F)
Dewpoint: 9.0°C ( 48°F) [RH = 87%]
Pressure (altimeter):29.92 inches Hg (1013.3 mb)
Winds:variable direction winds at 5 MPH (4 knots; 2.1 m/s) gusting to 15 MPH (13 knots; 6.7 m/s)
Visibility:10 or more sm (16+ km)
Ceiling:3100 feet AGL
Clouds: scattered clouds at 1200 feet AGL, overcast cloud deck at 3100 feet AGL
QC Flag:automated observation with no human augmentation
Text:K6B9 151255Z AUTO VRB06G14KT 10SM FEW012 OVC029 10/09 A2993 RMK AO2
Temperature: 10.0°C ( 50°F)
Dewpoint: 9.0°C ( 48°F) [RH = 93%]
Pressure (altimeter):29.93 inches Hg (1013.6 mb)
Winds:variable direction winds at 7 MPH (6 knots; 3.1 m/s) gusting to 16 MPH (14 knots; 7.2 m/s)
Visibility:10 or more sm (16+ km)
Ceiling:2900 feet AGL
Clouds: few clouds at 1200 feet AGL, overcast cloud deck at 2900 feet AGL
QC Flag:automated observation with no human augmentation
Text:K6B9 151235Z AUTO VRB05G11KT 10SM SCT011 SCT023 OVC029 10/09 A2993 RMK AO2
Temperature: 10.0°C ( 50°F)
Dewpoint: 9.0°C ( 48°F) [RH = 93%]
Pressure (altimeter):29.93 inches Hg (1013.6 mb)
Winds:variable direction winds at 6 MPH (5 knots; 2.6 m/s) gusting to 13 MPH (11 knots; 5.7 m/s)
Visibility:10 or more sm (16+ km)
Ceiling:2900 feet AGL
Clouds: scattered clouds at 1100 feet AGL, scattered clouds at 2300 feet AGL, overcast cloud deck at 2900 feet AGL
QC Flag:automated observation with no human augmentation
Text:K6B9 151215Z AUTO VRB05G11KT 10SM SCT011 OVC023 10/09 A2993 RMK AO2
Temperature: 10.0°C ( 50°F)
Dewpoint: 9.0°C ( 48°F) [RH = 93%]
Pressure (altimeter):29.93 inches Hg (1013.6 mb)
Winds:variable direction winds at 6 MPH (5 knots; 2.6 m/s) gusting to 13 MPH (11 knots; 5.7 m/s)
Visibility:10 or more sm (16+ km)
Ceiling:2300 feet AGL
Clouds: scattered clouds at 1100 feet AGL, overcast cloud deck at 2300 feet AGL
QC Flag:automated observation with no human augmentation
Text:K6B9 151155Z AUTO 18007G14KT 140V230 6SM BR BKN011 BKN020 OVC024 10/09 A2994 RMK AO2 P0001
Temperature: 10.0°C ( 50°F)
Dewpoint: 9.0°C ( 48°F) [RH = 93%]
Pressure (altimeter):29.94 inches Hg (1014.0 mb)
Winds:from the S (180 degrees) at 8 MPH (7 knots; 3.6 m/s) gusting to 16 MPH (14 knots; 7.2 m/s)
Visibility: 6 sm ( 10 km)
Ceiling:1100 feet AGL
Clouds: broken clouds at 1100 feet AGL, broken clouds at 2000 feet AGL, overcast cloud deck at 2400 feet AGL
Weather:BR (mist)
QC Flag:automated observation with no human augmentation
Text:K6B9 151135Z AUTO 17007G12KT 130V210 4SM BR BKN012 BKN020 OVC031 10/09 A2996 RMK AO2
Temperature: 10.0°C ( 50°F)
Dewpoint: 9.0°C ( 48°F) [RH = 93%]
Pressure (altimeter):29.96 inches Hg (1014.6 mb)
Winds:from the S (170 degrees) at 8 MPH (7 knots; 3.6 m/s) gusting to 14 MPH (12 knots; 6.2 m/s)
Visibility: 4 sm ( 6 km)
Ceiling:1200 feet AGL
Clouds: broken clouds at 1200 feet AGL, broken clouds at 2000 feet AGL, overcast cloud deck at 3100 feet AGL
Weather:BR (mist)
QC Flag:automated observation with no human augmentation
Text:K6B9 151115Z AUTO VRB03G12KT 5SM -RA FEW012 SCT026 OVC032 10/09 A2996 RMK AO2
Temperature: 10.0°C ( 50°F)
Dewpoint: 9.0°C ( 48°F) [RH = 93%]
Pressure (altimeter):29.96 inches Hg (1014.6 mb)
Winds:variable direction winds at 3 MPH (3 knots; 1.5 m/s) gusting to 14 MPH (12 knots; 6.2 m/s)
Visibility: 5 sm ( 8 km)
Ceiling:3200 feet AGL
Clouds: few clouds at 1200 feet AGL, scattered clouds at 2600 feet AGL, overcast cloud deck at 3200 feet AGL
Weather:-RA (light rain)
QC Flag:automated observation with no human augmentation
Text:K6B9 151055Z AUTO VRB06G11KT 5SM -RA OVC025 09/08 A2997 RMK AO2 P0001
Temperature: 9.0°C ( 48°F)
Dewpoint: 8.0°C ( 46°F) [RH = 93%]
Pressure (altimeter):29.97 inches Hg (1015.0 mb)
Winds:variable direction winds at 7 MPH (6 knots; 3.1 m/s) gusting to 13 MPH (11 knots; 5.7 m/s)
Visibility: 5 sm ( 8 km)
Ceiling:2500 feet AGL
Clouds: overcast cloud deck at 2500 feet AGL
Weather:-RA (light rain)
QC Flag:automated observation with no human augmentation
Text:K6B9 151035Z AUTO VRB06G12KT 5SM BR SCT024 BKN030 OVC037 09/08 A2997 RMK AO2
Temperature: 9.0°C ( 48°F)
Dewpoint: 8.0°C ( 46°F) [RH = 93%]
Pressure (altimeter):29.97 inches Hg (1015.0 mb)
Winds:variable direction winds at 7 MPH (6 knots; 3.1 m/s) gusting to 14 MPH (12 knots; 6.2 m/s)
Visibility: 5 sm ( 8 km)
Ceiling:3000 feet AGL
Clouds: scattered clouds at 2400 feet AGL, broken clouds at 3000 feet AGL, overcast cloud deck at 3700 feet AGL
Weather:BR (mist)
QC Flag:automated observation with no human augmentation
Text:K6B9 151015Z AUTO VRB06G11KT 9SM FEW007 BKN039 OVC075 09/08 A2998 RMK AO2
Temperature: 9.0°C ( 48°F)
Dewpoint: 8.0°C ( 46°F) [RH = 93%]
Pressure (altimeter):29.98 inches Hg (1015.3 mb)
Winds:variable direction winds at 7 MPH (6 knots; 3.1 m/s) gusting to 13 MPH (11 knots; 5.7 m/s)
Visibility: 9 sm ( 14 km)
Ceiling:3900 feet AGL
Clouds: few clouds at 700 feet AGL, broken clouds at 3900 feet AGL, overcast cloud deck at 7500 feet AGL
QC Flag:automated observation with no human augmentation
Text:K6B9 150955Z AUTO VRB05G10KT 10SM FEW042 OVC075 09/07 A2999 RMK AO2
Temperature: 9.0°C ( 48°F)
Dewpoint: 7.0°C ( 45°F) [RH = 87%]
Pressure (altimeter):29.99 inches Hg (1015.7 mb)
Winds:variable direction winds at 6 MPH (5 knots; 2.6 m/s) gusting to 12 MPH (10 knots; 5.1 m/s)
Visibility:10 or more sm (16+ km)
Ceiling:7500 feet AGL
Clouds: few clouds at 4200 feet AGL, overcast cloud deck at 7500 feet AGL
QC Flag:automated observation with no human augmentation
Text:K6B9 150935Z AUTO 17005G13KT 10SM SCT042 BKN075 OVC090 09/07 A2999 RMK AO2
Temperature: 9.0°C ( 48°F)
Dewpoint: 7.0°C ( 45°F) [RH = 87%]
Pressure (altimeter):29.99 inches Hg (1015.7 mb)
Winds:from the S (170 degrees) at 6 MPH (5 knots; 2.6 m/s) gusting to 15 MPH (13 knots; 6.7 m/s)
Visibility:10 or more sm (16+ km)
Ceiling:7500 feet AGL
Clouds: scattered clouds at 4200 feet AGL, broken clouds at 7500 feet AGL, overcast cloud deck at 9000 feet AGL
QC Flag:automated observation with no human augmentation
Text:K6B9 150915Z AUTO VRB05KT 10SM FEW037 OVC080 09/06 A3001 RMK AO2
Temperature: 9.0°C ( 48°F)
Dewpoint: 6.0°C ( 43°F) [RH = 81%]
Pressure (altimeter):30.01 inches Hg (1016.3 mb)
Winds:variable direction winds at 6 MPH (5 knots; 2.6 m/s)
Visibility:10 or more sm (16+ km)
Ceiling:8000 feet AGL
Clouds: few clouds at 3700 feet AGL, overcast cloud deck at 8000 feet AGL
QC Flag:automated observation with no human augmentation
Text:K6B9 150855Z AUTO VRB05KT 10SM OVC085 09/06 A3001 RMK AO2
Temperature: 9.0°C ( 48°F)
Dewpoint: 6.0°C ( 43°F) [RH = 81%]
Pressure (altimeter):30.01 inches Hg (1016.3 mb)
Winds:variable direction winds at 6 MPH (5 knots; 2.6 m/s)
Visibility:10 or more sm (16+ km)
Ceiling:8500 feet AGL
Clouds: overcast cloud deck at 8500 feet AGL
QC Flag:automated observation with no human augmentation
Text:K6B9 150835Z AUTO VRB04KT 10SM SCT080 SCT090 09/06 A3002 RMK AO2
Temperature: 9.0°C ( 48°F)
Dewpoint: 6.0°C ( 43°F) [RH = 81%]
Pressure (altimeter):30.02 inches Hg (1016.7 mb)
Winds:variable direction winds at 5 MPH (4 knots; 2.1 m/s)
Visibility:10 or more sm (16+ km)
Ceiling:at least 12,000 feet AGL
Clouds: scattered clouds at 8000 feet AGL, scattered clouds at 9000 feet AGL
QC Flag:automated observation with no human augmentation
Text:K6B9 150815Z AUTO VRB03KT 10SM FEW120 08/06 A3003 RMK AO2
Temperature: 8.0°C ( 46°F)
Dewpoint: 6.0°C ( 43°F) [RH = 87%]
Pressure (altimeter):30.03 inches Hg (1017.0 mb)
Winds:variable direction winds at 3 MPH (3 knots; 1.5 m/s)
Visibility:10 or more sm (16+ km)
Ceiling:at least 12,000 feet AGL
Clouds: few clouds at 12000 feet AGL
QC Flag:automated observation with no human augmentation
Text:K6B9 150755Z AUTO VRB03KT 10SM FEW120 08/06 A3005 RMK AO2
Temperature: 8.0°C ( 46°F)
Dewpoint: 6.0°C ( 43°F) [RH = 87%]
Pressure (altimeter):30.05 inches Hg (1017.7 mb)
Winds:variable direction winds at 3 MPH (3 knots; 1.5 m/s)
Visibility:10 or more sm (16+ km)
Ceiling:at least 12,000 feet AGL
Clouds: few clouds at 12000 feet AGL
QC Flag:automated observation with no human augmentation